METAR Reports

 

KMRH - Beaufort, North Carolina, USA
Distance from station: E 8mi, 12km
Updated: Fri, 20-Jul-2018 11:58am EDT
Overcast
Overcast
 Wind from SSE
Wind: SSE 10 mph , 17 km/h
Temperature: 79°F , 26°C
Dew Point: 73°F , 23°C
Humidity: 84%
Barometer: 30.05 inHg , 1017.6 hPa
Clouds: Overcast
Visibility: 10 miles , 16 km
Cloud details: Mostly Cloudy 2100 ft
Overcast 3000 ft
2018/07/20 15:58 KMRH 201558Z AUTO 15009KT 10SM BKN021 OVC030 26/23 A3005 RMK AO2 SLP176 T02560233
KEWN - New Bern, North Carolina, USA
Distance from station: NW 33mi, 40km
Updated: Fri, 20-Jul-2018 11:54am EDT
Mostly Cloudy
Mostly Cloudy
 Wind from ESE
Wind: ESE 8 mph , 13 km/h
Temperature: 81°F , 27°C
Heat Index: 85°F , 29°C
Dew Point: 72°F , 22°C
Humidity: 74%
Barometer: 30.07 inHg , 1018.3 hPa
Clouds: Mostly Cloudy
Visibility: 10 miles , 16 km
Cloud details: Few Clouds 2800 ft
Mostly Cloudy 7000 ft
2018/07/20 15:54 KEWN 201554Z 11007KT 10SM FEW028 BKN070 27/22 A3007 RMK AO2 SLP182 T02670222
 
KPGV - Greenville, North Carolina, USA
Updated: Fri, 20-Jul-2018 12:10pm EDT
Partly Cloudy
Partly Cloudy
 Wind from E
Wind: E 10 mph , 17 km/h
Temperature: 82°F , 28°C
Heat Index: 85°F , 29°C
Dew Point: 68°F , 20°C
Humidity: 62%
Barometer: 30.09 inHg , 1019 hPa
Clouds: Partly Cloudy
Visibility: 10 miles , 16 km
Cloud details: Partly Cloudy 3000 ft
Partly Cloudy 5500 ft
2018/07/20 16:10 KPGV 201610Z AUTO 10009KT 10SM SCT030 SCT055 28/20 A3009 RMK AO2
KOAJ - Richlands, North Carolina, USA
Updated: Fri, 20-Jul-2018 11:56am EDT
Light rain, Mostly cloudy
Light rain, Mostly cloudy
 Wind from ENE
Wind: ENE 8 mph , 13 km/h
Temperature: 79°F , 26°C
Dew Point: 73°F , 23°C
Humidity: 84%
Barometer: 30.05 inHg , 1017.6 hPa
Summary: Light Rain
Clouds: Mostly Cloudy
Visibility: 10 miles , 16 km
Cloud details: Partly Cloudy 3200 ft
Partly Cloudy 4100 ft
Mostly Cloudy 5000 ft
2018/07/20 15:56 KOAJ 201556Z AUTO 07007KT 10SM -RA SCT032 SCT041 BKN050 26/23 A3005 RMK AO2 RAB31 SLP179 P0000 T02610228
 
KISO - Kinston, North Carolina, USA
Distance from station: NW 73mi, 87km
Updated: Fri, 20-Jul-2018 11:56am EDT
Partly Cloudy
Partly Cloudy
 Wind from ENE
Wind: ENE 9 mph , 15 km/h
Temperature: 82°F , 28°C
Heat Index: 86°F , 30°C
Dew Point: 70°F , 21°C
Humidity: 66%
Barometer: 30.07 inHg , 1018.3 hPa
Clouds: Partly Cloudy
Visibility: 10 miles , 16 km
Cloud details: Partly Cloudy 2900 ft
Partly Cloudy 5000 ft
2018/07/20 15:56 KISO 201556Z 06008KT 10SM SCT029 SCT050 28/21 A3007
KHSE - Buxton, North Carolina, USA
Distance from station: NE 89mi, 102km
Updated: Fri, 20-Jul-2018 11:51am EDT
Mostly Cloudy
Mostly Cloudy
 Wind from E
Wind: E 15 mph , 24 km/h, Gust: 23 mph , 37 km/h
Temperature: 82°F , 28°C
Heat Index: 86°F , 30°C
Dew Point: 70°F , 21°C
Humidity: 66%
Barometer: 30.08 inHg , 1018.6 hPa
Clouds: Mostly Cloudy
Visibility: 10 miles , 16 km
Cloud details: Mostly Cloudy 7000 ft
2018/07/20 15:51 KHSE 201551Z AUTO 10013G20KT 10SM BKN070 28/21 A3008 RMK AO2 SLP185 T02830206
 
KNCA - Jacksonville, North Carolina, USA
Distance from station: SW 48mi, 60km
Updated: Fri, 20-Jul-2018 12:03pm EDT
Light rain, Overcast
Light rain, Overcast
 Wind from SE
Wind: SE 8 mph , 13 km/h
Temperature: 77°F , 25°C
Dew Point: 75°F , 24°C
Humidity: 94%
Barometer: 30.03 inHg , 1016.9 hPa
Summary: Light Rain
Clouds: Overcast
Visibility: 8 miles , 13 km
Cloud details: Mostly Cloudy 1500 ft
Mostly Cloudy 5500 ft
Overcast 9000 ft
2018/07/20 16:03 KNCA 201603Z 13007KT 8SM -RA BKN015 BKN055 OVC090 25/24 A3003 RMK AO2 P0000 T02500239
KNKT - Cherry Point, North Carolina, USA
Distance from station: NW 9mi, 12km
Updated: Fri, 20-Jul-2018 11:54am EDT
Overcast
Overcast
 Wind from E
Wind: E 7 mph , 11 km/h
Temperature: 79°F , 26°C
Dew Point: 73°F , 23°C
Humidity: 84%
Barometer: 30.06 inHg , 1017.9 hPa
Clouds: Overcast
Visibility: 10 miles , 16 km
Cloud details: Partly Cloudy 2000 ft
Overcast 7000 ft
2018/07/20 15:54 KNKT 201554Z 09006KT 10SM SCT020 OVC070 26/23 A3006 RMK AO2 SLP177 T02610233
 
KOCW - Washington, North Carolina, USA
Distance from station: N 73mi, 87km
Updated: Fri, 20-Jul-2018 11:55am EDT
Mostly Cloudy
Mostly Cloudy
 Wind from ENE
Wind: ENE 9 mph , 15 km/h
Temperature: 82°F , 28°C
Heat Index: 86°F , 30°C
Dew Point: 70°F , 21°C
Humidity: 66%
Barometer: 30.08 inHg , 1018.6 hPa
Clouds: Mostly Cloudy
Visibility: 10 miles , 16 km
Cloud details: Partly Cloudy 3000 ft
Mostly Cloudy 3900 ft
Mostly Cloudy 6000 ft
2018/07/20 15:55 KOCW 201555Z AUTO 06008KT 10SM SCT030 BKN039 BKN060 28/21 A3008 RMK AO2 T02760208
KDPL - Kenansville, North Carolina, USA
Distance from station: W 86mi, 98km
Updated: Fri, 20-Jul-2018 11:55am EDT
Mostly Cloudy
Mostly Cloudy
 Wind from E
Wind: E 5 mph , 7 km/h
Temperature: 81°F , 27°C
Heat Index: 85°F , 29°C
Dew Point: 72°F , 22°C
Humidity: 74%
Barometer: 30.05 inHg , 1017.6 hPa
Clouds: Mostly Cloudy
Visibility: 10 miles , 16 km
Cloud details: Mostly Cloudy 2400 ft
2018/07/20 15:55 KDPL 201555Z AUTO 10004KT 10SM BKN024 27/22 A3005 RMK AO2
 
KMQI - Manteo, North Carolina, USA
Updated: Fri, 20-Jul-2018 11:55am EDT
Clear
Clear
 Wind from ESE
Wind: ESE 10 mph , 17 km/h
Temperature: 81°F , 27°C
Heat Index: 84°F , 29°C
Dew Point: 68°F , 20°C
Humidity: 66%
Barometer: 30.11 inHg , 1019.6 hPa
Clouds: Clear
Visibility: 10 miles , 16 km
2018/07/20 15:55 KMQI 201555Z AUTO 12009KT 10SM CLR 27/20 A3011 RMK AO2 T02740199
KFFA - Kill Devil Hills, North Carolina, USA
Updated: Fri, 20-Jul-2018 11:50am EDT

 Wind from E
Wind: E 6 mph , 9 km/h
Temperature: 81°F , 27°C
Heat Index: 83°F , 28°C
Dew Point: 66°F , 19°C
Humidity: 62%
Barometer: 30.10 inHg , 1019.3 hPa
2018/07/20 15:50 KFFA 201550Z AUTO 08005KT 27/19 A3010 RMK AO2 T02680192 PWINO
 
KILM - Wilmington, North Carolina, USA
Updated: Fri, 20-Jul-2018 11:53am EDT
Rain, Mist, Overcast
Rain, Mist, Overcast
 Wind from ENE
Wind: ENE 7 mph , 11 km/h
Temperature: 75°F , 24°C
Dew Point: 73°F , 23°C
Humidity: 94%
Barometer: 30.03 inHg , 1016.9 hPa
Summary: Rain, Mist
Clouds: Overcast
Visibility: 4 miles , 6 km
Cloud details: Few Clouds 1000 ft
Mostly Cloudy 5500 ft
Overcast 8000 ft
2018/07/20 15:53 KILM 201553Z 06006KT 4SM RA BR FEW010 BKN055 OVC080 24/23 A3003 RMK AO2 SLP168 P0008 T02390228
KRDU - Raleigh, North Carolina, USA
Updated: Fri, 20-Jul-2018 11:51am EDT
Overcast
Overcast
 Wind from E
Wind: E 14 mph , 22 km/h
Temperature: 81°F , 27°C
Heat Index: 83°F , 28°C
Dew Point: 64°F , 18°C
Humidity: 58%
Barometer: 30.08 inHg , 1018.6 hPa
Clouds: Overcast
Visibility: 10 miles , 16 km
Cloud details: Partly Cloudy 3200 ft
Mostly Cloudy 22000 ft
Overcast 25000 ft
2018/07/20 15:51 KRDU 201551Z 10012KT 10SM SCT032 BKN220 OVC250 27/18 A3008 RMK AO2 SLP182 T02720183